首页
METAR-TAF:

METAR-TAF

机场 :

開雲-羅尚博國際機場

開雲, 法屬圭亞那

纬度: 04-50N, 经度: 052-22W, 海拔: 105米

当前天气观测

该预报发布于28分钟前的04:00 UTC
风速2节,风向多变
温度 26°C
湿度 100%
气压 1013 hPa
能見度: 2300
大雨

METAR: SOCA 280400Z AUTO VRB02KT 9999 2300 +RA BKN013/// BKN018/// OVC036/// ///TCU 26/26 Q1013 TEMPO 1500 SHRA SCT010CB

时间: 01:28 (04:28 UTC)

预报

该预报发布于2小时和12分钟前的02:16 UTC
预报有效从28日的 02点(UTC)到 28日的 24点(UTC)
风速2节,风向多变
能见度10公里或以上
散云层高于1800英尺
多云层高于4000英尺
几率 40% :
短暂存在
从 28日的 02点(UTC)到 28日的 03点(UTC)
能見度: 3000
少量云层高于1200英尺, 塔状积云.
散云层高于1500英尺, 积雨云.
阵雨
短暂存在
从 28日的 03点(UTC)到 28日的 14点(UTC)
能見度: 1500
散云层高于1000英尺, 积雨云.
阵雨
几率 30% :
短暂存在
从 28日的 03点(UTC)到 28日的 14点(UTC)
雷暴, 雨
从 28日的 1400点(UTC)
风速6节,风向
能见度10公里或以上
散云层高于2000英尺
多云层高于4000英尺
几率 40% :
短暂存在
从 28日的 14点(UTC)到 28日的 24点(UTC)
少量云层高于1200英尺, 塔状积云.
阵雨,

TAF: SOCA 280216Z 2802/2824 VRB02KT 9999 SCT018 BKN040 PROB40 TEMPO 2802/2803 3000 SHRA FEW012TCU SCT015CB TEMPO 2803/2814 1500 SHRA SCT010CB PROB30 TEMPO 2803/2814 TSRA FM281400 08006KT 9999 SCT020 BKN040 PROB40 TEMPO 2814/2824 SHRA FEW012TCU

超过4000个机场的气象观测和天气预报(METAR&TAF报告)。

可查询的气象台以黄色和红色小点在地图上表示。

将鼠标移到小点上方,可查看气象台名称。

然后点击查看天气观测和预报。

如需切换地图:点击带黑十字的绿色按钮放大地图;点击带横线的绿色按钮缩小地图;或者点击绿色箭头查看邻近地区的地图。


METAR-TAF: